TAF LFRZ
LFRZ 072300Z 0800/0824 24012KT 9999 SCT030 SCT050 TEMPO 0800/0812 26015G25KT 4000 SHRA SCT020 BKN035CB PROB40 TEMPO 0800/0806 26020G30KT -TSRA=
METAR LFRZ
LFRZ 080400Z AUTO 32006KT 240V010 9999 -RA BKN037/// BKN047/// BKN074/// ///TCU 06/03 Q0998 TEMPO 26020G30KT 4000 SHRA SCT020 BKN035CB=
LFRZ 080330Z AUTO 28016KT 9999 SCT034/// BKN047/// BKN058/// ///CB 08/04 Q0998 TEMPO 26020G30KT 4000 SHRA=
LFRZ 080300Z AUTO 25008KT 9999 SCT041/// BKN054/// BKN170/// ///TCU 07/03 Q0998 TEMPO 26020G30KT 4000 SHRA SCT020 BKN035CB=
LFRZ 080230Z AUTO 23010KT CAVOK 07/03 Q0998 TEMPO 26020G30KT 4000 SHRA SCT020 BKN035CB=
LFRZ 080200Z AUTO 25009KT 9999 ///CB 06/03 Q0998 TEMPO 26020G30KT 4000 SHRA=
WC LFRZ
WS LFRZ
WV LFRZ